Moapa, Nevada
Current Conditions -  °F | °C
As of 6:58 PM on Wednesday 22 Oct 2014 (Local Time) from KLSV Reporting Station
Clear Clear  
Wind Chill: 74°   Ceiling: Unl
Heat Index: 74°   Visibility: 10mi
Dew Point: 29°   Wind: 6mph
Humidity: 19%   Direction: 70°ENE
Pressure: 29.98"   Gusts: NA
Location:  36.67°N, 114.62°W
Report Text: KLSV 230158Z AUTO 07005KT 10SM CLR 23/M02 A2998 RMK AO2 SLP139 T02341019 $
Loading
Personal Weather Stations






























Interactive Weather Map
Tropical Storm Tracking
New forecast layout! Learn more

10-Day Weather Forecast

Advertisements
Track Severe Weather on mobile